Columbus, OH (43213)

7:47 AM EDT on September 03, 2015 (GMT -0400)
Timber Creek | | Change Station
CLOSE
Current Station
Personal Weather Station
Location: Reynoldsburg, OH
Elevation: 926 ft
Nearby Weather Stations

Elev 926 ft 39.98 °N, 82.81 °W | Updated 48 seconds ago

Scattered Clouds
Scattered Clouds
68.0 °F
Feels Like 68.0 °F
N
0.0
Wind Variable Wind from NE
Gusts 0.7 mph

Today
High -- | Low -- °F
--% Chance of Precip.
Yesterday
High -- | Low -- °F
Precip. -- in
7:00 AM 8:00 PM
Waning Gibbous, 71% visible
Pressure 29.99 in
Visibility 7.0 miles
Clouds Scattered Clouds 9500 ft
Scattered Clouds 25000 ft
Dew Point 68 °F
Humidity 99%
Rainfall 0.00 in
Snow Depth Not available.
UV 0 out of 12
Pollen 10.40 out of 12
Air Quality Not available.
Flu Activity Not available.
METAR KCMH 031051Z 00000KT 7SM SCT095 SCT250 21/19 A3000 RMK AO2 SLP154 T02060194
Pressure 29.99 in
Visibility 7.0 miles
Clouds Scattered Clouds 9500 ft
Scattered Clouds 25000 ft
Dew Point 68 °F
Humidity 99%
Rainfall 0.00 in
Snow Depth Not available.
UV 0 out of 12
Pollen 10.40 out of 12
Air Quality Not available.
Flu Activity Not available.
METAR KCMH 031051Z 00000KT 7SM SCT095 SCT250 21/19 A3000 RMK AO2 SLP154 T02060194

10-Day Weather Forecast

×

Almanac

Astronomy

Sep. 03, 2015 Rise Set
Actual Time
Civil Twilight
Nautical Twilight
Astronomical Twilight
Moon
Length of Visible Light
Length of Day
Tomorrow will be .
, % of the Moon is Illuminated

Today's Extremes

State Highs State Lows

Community

WunderPhotos

Upload Photos

1,851,941 photos uploaded!

WunderBlogs® & News

Nearby

Air Quality

  Air Quality AQ Index Pollutant
Not available.

Snow Depth

Station Depth Elevation

Earthquake Activity

City Distance Mag. Time & Date
Minimum magnitude displayed is 2.5.

Coastal Water Temperatures

Place Temperature

Stations

Nearby Weather Stations

Station Location Temp. Windchill Dew Point Humidity Wind Precip. Elev Updated Type